sensor_id;sensor_type;location;lat;lon;timestamp;temperature;humidity
65692;DHT22;52411;52.716;6.696;2023-11-21T00:01:57;8.10;99.90
65692;DHT22;52411;52.716;6.696;2023-11-21T00:04:23;8.10;99.90
65692;DHT22;52411;52.716;6.696;2023-11-21T00:06:50;8.10;99.90
65692;DHT22;52411;52.716;6.696;2023-11-21T00:09:15;8.10;99.90
65692;DHT22;52411;52.716;6.696;2023-11-21T00:11:43;8.20;99.90
65692;DHT22;52411;52.716;6.696;2023-11-21T00:14:10;8.20;99.90
65692;DHT22;52411;52.716;6.696;2023-11-21T00:16:36;8.20;99.90
65692;DHT22;52411;52.716;6.696;2023-11-21T00:19:02;8.20;99.90
65692;DHT22;52411;52.716;6.696;2023-11-21T00:21:27;8.30;99.90
65692;DHT22;52411;52.716;6.696;2023-11-21T00:23:53;8.30;99.90
65692;DHT22;52411;52.716;6.696;2023-11-21T00:26:18;8.30;99.90
65692;DHT22;52411;52.716;6.696;2023-11-21T00:28:44;8.30;99.90
65692;DHT22;52411;52.716;6.696;2023-11-21T00:31:10;8.30;99.90
65692;DHT22;52411;52.716;6.696;2023-11-21T00:33:36;8.30;99.90
65692;DHT22;52411;52.716;6.696;2023-11-21T00:36:02;8.40;99.90
65692;DHT22;52411;52.716;6.696;2023-11-21T00:38:27;8.40;99.90
65692;DHT22;52411;52.716;6.696;2023-11-21T00:40:53;8.30;99.90
65692;DHT22;52411;52.716;6.696;2023-11-21T00:43:22;8.30;99.90
65692;DHT22;52411;52.716;6.696;2023-11-21T00:45:48;8.30;99.90
65692;DHT22;52411;52.716;6.696;2023-11-21T00:48:16;8.40;99.90
65692;DHT22;52411;52.716;6.696;2023-11-21T00:50:43;8.30;99.90
65692;DHT22;52411;52.716;6.696;2023-11-21T00:53:09;8.40;99.90
65692;DHT22;52411;52.716;6.696;2023-11-21T00:55:35;8.40;99.90
65692;DHT22;52411;52.716;6.696;2023-11-21T00:58:00;8.40;99.90
65692;DHT22;52411;52.716;6.696;2023-11-21T01:00:29;8.40;99.90
65692;DHT22;52411;52.716;6.696;2023-11-21T01:02:55;8.40;99.90
65692;DHT22;52411;52.716;6.696;2023-11-21T01:05:20;8.40;99.90
65692;DHT22;52411;52.716;6.696;2023-11-21T01:07:46;8.50;99.90
65692;DHT22;52411;52.716;6.696;2023-11-21T01:10:11;8.50;99.90
65692;DHT22;52411;52.716;6.696;2023-11-21T01:12:38;8.50;99.90
65692;DHT22;52411;52.716;6.696;2023-11-21T01:15:05;8.50;99.90
65692;DHT22;52411;52.716;6.696;2023-11-21T01:17:33;8.50;99.90
65692;DHT22;52411;52.716;6.696;2023-11-21T01:20:00;8.50;99.90
65692;DHT22;52411;52.716;6.696;2023-11-21T01:22:26;8.50;99.90
65692;DHT22;52411;52.716;6.696;2023-11-21T01:24:53;8.60;99.90
65692;DHT22;52411;52.716;6.696;2023-11-21T01:27:19;8.60;99.90
65692;DHT22;52411;52.716;6.696;2023-11-21T01:29:44;8.60;99.90
65692;DHT22;52411;52.716;6.696;2023-11-21T01:32:10;8.60;99.90
65692;DHT22;52411;52.716;6.696;2023-11-21T01:34:36;8.60;99.90
65692;DHT22;52411;52.716;6.696;2023-11-21T01:37:02;8.60;99.90
65692;DHT22;52411;52.716;6.696;2023-11-21T01:39:30;8.60;99.90
65692;DHT22;52411;52.716;6.696;2023-11-21T01:41:55;8.60;99.90
65692;DHT22;52411;52.716;6.696;2023-11-21T01:44:24;8.60;99.90
65692;DHT22;52411;52.716;6.696;2023-11-21T01:46:50;8.70;99.90
65692;DHT22;52411;52.716;6.696;2023-11-21T01:49:17;8.60;99.90
65692;DHT22;52411;52.716;6.696;2023-11-21T01:51:45;8.60;99.90
65692;DHT22;52411;52.716;6.696;2023-11-21T01:54:12;8.70;99.90
65692;DHT22;52411;52.716;6.696;2023-11-21T01:56:38;8.70;99.90
65692;DHT22;52411;52.716;6.696;2023-11-21T01:59:04;8.70;99.90
65692;DHT22;52411;52.716;6.696;2023-11-21T02:01:30;8.70;99.90
65692;DHT22;52411;52.716;6.696;2023-11-21T02:03:56;8.70;99.90
65692;DHT22;52411;52.716;6.696;2023-11-21T02:06:21;8.80;99.90
65692;DHT22;52411;52.716;6.696;2023-11-21T02:08:47;8.80;99.90
65692;DHT22;52411;52.716;6.696;2023-11-21T02:11:14;8.80;99.90
65692;DHT22;52411;52.716;6.696;2023-11-21T02:13:40;8.70;99.90
65692;DHT22;52411;52.716;6.696;2023-11-21T02:16:12;8.80;99.90
65692;DHT22;52411;52.716;6.696;2023-11-21T02:18:39;8.80;99.90
65692;DHT22;52411;52.716;6.696;2023-11-21T02:21:05;8.80;99.90
65692;DHT22;52411;52.716;6.696;2023-11-21T02:23:30;8.80;99.90
65692;DHT22;52411;52.716;6.696;2023-11-21T02:25:56;8.80;99.90
65692;DHT22;52411;52.716;6.696;2023-11-21T02:28:22;8.80;99.90
65692;DHT22;52411;52.716;6.696;2023-11-21T02:30:51;8.80;99.90
65692;DHT22;52411;52.716;6.696;2023-11-21T02:33:21;8.80;99.90
65692;DHT22;52411;52.716;6.696;2023-11-21T02:35:47;8.80;99.90
65692;DHT22;52411;52.716;6.696;2023-11-21T02:38:13;8.80;99.90
65692;DHT22;52411;52.716;6.696;2023-11-21T02:40:39;8.80;99.90
65692;DHT22;52411;52.716;6.696;2023-11-21T02:43:04;8.80;99.90
65692;DHT22;52411;52.716;6.696;2023-11-21T02:45:31;8.80;99.90
65692;DHT22;52411;52.716;6.696;2023-11-21T02:47:57;8.80;99.90
65692;DHT22;52411;52.716;6.696;2023-11-21T02:50:23;8.90;99.90
65692;DHT22;52411;52.716;6.696;2023-11-21T02:52:49;8.90;99.90
65692;DHT22;52411;52.716;6.696;2023-11-21T02:55:14;8.90;99.90
65692;DHT22;52411;52.716;6.696;2023-11-21T02:57:40;8.90;99.90
65692;DHT22;52411;52.716;6.696;2023-11-21T03:00:06;8.90;99.90
65692;DHT22;52411;52.716;6.696;2023-11-21T03:02:41;8.90;99.90
65692;DHT22;52411;52.716;6.696;2023-11-21T03:05:07;8.90;99.90
65692;DHT22;52411;52.716;6.696;2023-11-21T03:07:39;8.90;99.90
65692;DHT22;52411;52.716;6.696;2023-11-21T03:10:06;8.90;99.90
65692;DHT22;52411;52.716;6.696;2023-11-21T03:12:34;8.90;99.90
65692;DHT22;52411;52.716;6.696;2023-11-21T03:14:59;8.90;99.90
65692;DHT22;52411;52.716;6.696;2023-11-21T03:17:27;8.90;99.90
65692;DHT22;52411;52.716;6.696;2023-11-21T03:19:52;8.90;99.90
65692;DHT22;52411;52.716;6.696;2023-11-21T03:22:18;8.90;99.90
65692;DHT22;52411;52.716;6.696;2023-11-21T03:24:44;8.90;99.90
65692;DHT22;52411;52.716;6.696;2023-11-21T03:27:10;8.90;99.90
65692;DHT22;52411;52.716;6.696;2023-11-21T03:29:35;8.90;99.90
65692;DHT22;52411;52.716;6.696;2023-11-21T03:32:01;8.90;99.90
65692;DHT22;52411;52.716;6.696;2023-11-21T03:34:27;8.90;99.90
65692;DHT22;52411;52.716;6.696;2023-11-21T03:36:53;8.90;99.90
65692;DHT22;52411;52.716;6.696;2023-11-21T03:39:20;9.00;99.90
65692;DHT22;52411;52.716;6.696;2023-11-21T03:41:46;8.90;99.90
65692;DHT22;52411;52.716;6.696;2023-11-21T03:44:12;9.00;99.90
65692;DHT22;52411;52.716;6.696;2023-11-21T03:46:38;9.00;99.90
65692;DHT22;52411;52.716;6.696;2023-11-21T03:49:03;9.00;99.90
65692;DHT22;52411;52.716;6.696;2023-11-21T03:51:29;9.00;99.90
65692;DHT22;52411;52.716;6.696;2023-11-21T03:53:54;9.00;99.90
65692;DHT22;52411;52.716;6.696;2023-11-21T03:56:20;9.10;99.90
65692;DHT22;52411;52.716;6.696;2023-11-21T03:58:48;9.10;99.90
65692;DHT22;52411;52.716;6.696;2023-11-21T04:01:24;9.10;99.90
65692;DHT22;52411;52.716;6.696;2023-11-21T04:03:50;9.00;99.90
65692;DHT22;52411;52.716;6.696;2023-11-21T04:06:17;9.00;99.90
65692;DHT22;52411;52.716;6.696;2023-11-21T04:08:44;9.10;99.90
65692;DHT22;52411;52.716;6.696;2023-11-21T04:11:10;9.00;99.90
65692;DHT22;52411;52.716;6.696;2023-11-21T04:13:39;9.00;99.90
65692;DHT22;52411;52.716;6.696;2023-11-21T04:16:08;9.00;99.90
65692;DHT22;52411;52.716;6.696;2023-11-21T04:18:36;9.00;99.90
65692;DHT22;52411;52.716;6.696;2023-11-21T04:21:02;9.10;99.90
65692;DHT22;52411;52.716;6.696;2023-11-21T04:23:28;9.10;99.90
65692;DHT22;52411;52.716;6.696;2023-11-21T04:25:54;9.10;99.90
65692;DHT22;52411;52.716;6.696;2023-11-21T04:28:22;9.10;99.90
65692;DHT22;52411;52.716;6.696;2023-11-21T04:30:48;9.10;99.90
65692;DHT22;52411;52.716;6.696;2023-11-21T04:33:14;9.10;99.90
65692;DHT22;52411;52.716;6.696;2023-11-21T04:35:39;9.10;99.90
65692;DHT22;52411;52.716;6.696;2023-11-21T04:38:05;9.10;99.90
65692;DHT22;52411;52.716;6.696;2023-11-21T04:40:30;9.00;99.90
65692;DHT22;52411;52.716;6.696;2023-11-21T04:42:56;9.10;99.90
65692;DHT22;52411;52.716;6.696;2023-11-21T04:45:22;9.00;99.90
65692;DHT22;52411;52.716;6.696;2023-11-21T04:47:48;9.00;99.90
65692;DHT22;52411;52.716;6.696;2023-11-21T04:50:13;9.00;99.90
65692;DHT22;52411;52.716;6.696;2023-11-21T04:52:39;9.00;99.90
65692;DHT22;52411;52.716;6.696;2023-11-21T04:55:05;8.90;99.90
65692;DHT22;52411;52.716;6.696;2023-11-21T04:57:32;8.90;99.90
65692;DHT22;52411;52.716;6.696;2023-11-21T04:59:57;8.90;99.90
65692;DHT22;52411;52.716;6.696;2023-11-21T05:02:23;8.90;99.90
65692;DHT22;52411;52.716;6.696;2023-11-21T05:04:49;8.80;99.90
65692;DHT22;52411;52.716;6.696;2023-11-21T05:07:14;8.80;99.90
65692;DHT22;52411;52.716;6.696;2023-11-21T05:09:44;8.80;99.90
65692;DHT22;52411;52.716;6.696;2023-11-21T05:12:12;8.80;99.90
65692;DHT22;52411;52.716;6.696;2023-11-21T05:14:37;8.80;99.90
65692;DHT22;52411;52.716;6.696;2023-11-21T05:17:03;8.80;99.90
65692;DHT22;52411;52.716;6.696;2023-11-21T05:19:29;8.70;99.90
65692;DHT22;52411;52.716;6.696;2023-11-21T05:21:55;8.70;99.90
65692;DHT22;52411;52.716;6.696;2023-11-21T05:24:20;8.60;99.90
65692;DHT22;52411;52.716;6.696;2023-11-21T05:26:46;8.60;99.90
65692;DHT22;52411;52.716;6.696;2023-11-21T05:29:11;8.60;99.90
65692;DHT22;52411;52.716;6.696;2023-11-21T05:31:37;8.60;99.90
65692;DHT22;52411;52.716;6.696;2023-11-21T05:34:03;8.60;99.90
65692;DHT22;52411;52.716;6.696;2023-11-21T05:36:30;8.70;99.90
65692;DHT22;52411;52.716;6.696;2023-11-21T05:38:56;8.80;99.90
65692;DHT22;52411;52.716;6.696;2023-11-21T05:41:21;8.80;99.90
65692;DHT22;52411;52.716;6.696;2023-11-21T05:43:47;8.90;99.90
65692;DHT22;52411;52.716;6.696;2023-11-21T05:46:13;8.90;99.90
65692;DHT22;52411;52.716;6.696;2023-11-21T05:48:38;8.90;99.90
65692;DHT22;52411;52.716;6.696;2023-11-21T05:51:07;8.90;99.90
65692;DHT22;52411;52.716;6.696;2023-11-21T05:53:34;8.90;99.90
65692;DHT22;52411;52.716;6.696;2023-11-21T05:55:59;8.90;99.90
65692;DHT22;52411;52.716;6.696;2023-11-21T05:58:25;9.00;99.90
65692;DHT22;52411;52.716;6.696;2023-11-21T06:00:51;9.00;99.90
65692;DHT22;52411;52.716;6.696;2023-11-21T06:03:16;9.00;99.90
65692;DHT22;52411;52.716;6.696;2023-11-21T06:05:42;9.00;99.90
65692;DHT22;52411;52.716;6.696;2023-11-21T06:08:09;9.00;99.90
65692;DHT22;52411;52.716;6.696;2023-11-21T06:10:36;9.00;99.90
65692;DHT22;52411;52.716;6.696;2023-11-21T06:13:01;9.00;99.90
65692;DHT22;52411;52.716;6.696;2023-11-21T06:15:29;9.00;99.90
65692;DHT22;52411;52.716;6.696;2023-11-21T06:17:55;9.10;99.90
65692;DHT22;52411;52.716;6.696;2023-11-21T06:20:21;9.00;99.90
65692;DHT22;52411;52.716;6.696;2023-11-21T06:22:49;9.00;99.90
65692;DHT22;52411;52.716;6.696;2023-11-21T06:25:15;9.10;99.90
65692;DHT22;52411;52.716;6.696;2023-11-21T06:27:48;9.10;99.90
65692;DHT22;52411;52.716;6.696;2023-11-21T06:30:14;9.10;99.90
65692;DHT22;52411;52.716;6.696;2023-11-21T06:32:41;9.10;99.90
65692;DHT22;52411;52.716;6.696;2023-11-21T06:35:07;9.10;99.90
65692;DHT22;52411;52.716;6.696;2023-11-21T06:37:37;9.10;99.90
65692;DHT22;52411;52.716;6.696;2023-11-21T06:40:02;9.10;99.90
65692;DHT22;52411;52.716;6.696;2023-11-21T06:42:29;9.10;99.90
65692;DHT22;52411;52.716;6.696;2023-11-21T06:44:55;9.20;99.90
65692;DHT22;52411;52.716;6.696;2023-11-21T06:47:23;9.20;99.90
65692;DHT22;52411;52.716;6.696;2023-11-21T06:49:52;9.10;99.90
65692;DHT22;52411;52.716;6.696;2023-11-21T06:52:18;9.20;99.90
65692;DHT22;52411;52.716;6.696;2023-11-21T06:54:44;9.20;99.90
65692;DHT22;52411;52.716;6.696;2023-11-21T06:57:11;9.20;99.90
65692;DHT22;52411;52.716;6.696;2023-11-21T06:59:37;9.20;99.90
65692;DHT22;52411;52.716;6.696;2023-11-21T07:02:03;9.20;99.90
65692;DHT22;52411;52.716;6.696;2023-11-21T07:04:30;9.20;99.90
65692;DHT22;52411;52.716;6.696;2023-11-21T07:06:56;9.20;99.90
65692;DHT22;52411;52.716;6.696;2023-11-21T07:09:21;9.20;99.90
65692;DHT22;52411;52.716;6.696;2023-11-21T07:11:50;9.20;99.90
65692;DHT22;52411;52.716;6.696;2023-11-21T07:14:16;9.20;99.90
65692;DHT22;52411;52.716;6.696;2023-11-21T07:16:42;9.20;99.90
65692;DHT22;52411;52.716;6.696;2023-11-21T07:19:08;9.20;99.90
65692;DHT22;52411;52.716;6.696;2023-11-21T07:21:36;9.20;99.90
65692;DHT22;52411;52.716;6.696;2023-11-21T07:24:03;9.20;99.90
65692;DHT22;52411;52.716;6.696;2023-11-21T07:26:30;9.20;99.90
65692;DHT22;52411;52.716;6.696;2023-11-21T07:28:55;9.20;99.90
65692;DHT22;52411;52.716;6.696;2023-11-21T07:31:24;9.20;99.90
65692;DHT22;52411;52.716;6.696;2023-11-21T07:33:50;9.20;99.90
65692;DHT22;52411;52.716;6.696;2023-11-21T07:36:16;9.30;99.90
65692;DHT22;52411;52.716;6.696;2023-11-21T07:38:51;9.30;99.90
65692;DHT22;52411;52.716;6.696;2023-11-21T07:41:17;9.30;99.90
65692;DHT22;52411;52.716;6.696;2023-11-21T07:43:45;9.30;99.90
65692;DHT22;52411;52.716;6.696;2023-11-21T07:46:11;9.30;99.90
65692;DHT22;52411;52.716;6.696;2023-11-21T07:48:41;9.40;99.90
65692;DHT22;52411;52.716;6.696;2023-11-21T07:51:11;9.40;99.90
65692;DHT22;52411;52.716;6.696;2023-11-21T07:53:38;9.40;99.90
65692;DHT22;52411;52.716;6.696;2023-11-21T07:56:06;9.40;99.90
65692;DHT22;52411;52.716;6.696;2023-11-21T07:58:31;9.50;99.90
65692;DHT22;52411;52.716;6.696;2023-11-21T08:00:59;9.40;99.90
65692;DHT22;52411;52.716;6.696;2023-11-21T08:03:25;9.50;99.90
65692;DHT22;52411;52.716;6.696;2023-11-21T08:05:52;9.50;99.90
65692;DHT22;52411;52.716;6.696;2023-11-21T08:08:18;9.50;99.90
65692;DHT22;52411;52.716;6.696;2023-11-21T08:10:44;9.50;99.90
65692;DHT22;52411;52.716;6.696;2023-11-21T08:13:25;9.60;99.90
65692;DHT22;52411;52.716;6.696;2023-11-21T08:15:55;9.60;99.90
65692;DHT22;52411;52.716;6.696;2023-11-21T08:18:22;9.60;99.90
65692;DHT22;52411;52.716;6.696;2023-11-21T08:20:47;9.70;99.90
65692;DHT22;52411;52.716;6.696;2023-11-21T08:23:14;9.70;99.90
65692;DHT22;52411;52.716;6.696;2023-11-21T08:25:43;9.80;99.90
65692;DHT22;52411;52.716;6.696;2023-11-21T08:28:08;9.90;99.90
65692;DHT22;52411;52.716;6.696;2023-11-21T08:30:34;9.90;99.90
65692;DHT22;52411;52.716;6.696;2023-11-21T08:33:00;9.90;99.90
65692;DHT22;52411;52.716;6.696;2023-11-21T08:35:25;10.00;99.90
65692;DHT22;52411;52.716;6.696;2023-11-21T08:37:52;10.10;99.90
65692;DHT22;52411;52.716;6.696;2023-11-21T08:40:19;10.20;99.90
65692;DHT22;52411;52.716;6.696;2023-11-21T08:42:44;10.20;99.90
65692;DHT22;52411;52.716;6.696;2023-11-21T08:45:11;10.30;99.90
65692;DHT22;52411;52.716;6.696;2023-11-21T08:47:38;10.40;99.90
65692;DHT22;52411;52.716;6.696;2023-11-21T08:50:06;10.50;99.90
65692;DHT22;52411;52.716;6.696;2023-11-21T08:52:36;10.50;99.90
65692;DHT22;52411;52.716;6.696;2023-11-21T08:55:02;10.50;99.90
65692;DHT22;52411;52.716;6.696;2023-11-21T08:57:33;10.50;99.90
65692;DHT22;52411;52.716;6.696;2023-11-21T08:59:59;10.40;99.90
65692;DHT22;52411;52.716;6.696;2023-11-21T09:02:27;10.40;99.90
65692;DHT22;52411;52.716;6.696;2023-11-21T09:04:53;10.40;99.90
65692;DHT22;52411;52.716;6.696;2023-11-21T09:07:19;10.40;99.90
65692;DHT22;52411;52.716;6.696;2023-11-21T09:09:46;10.40;99.90
65692;DHT22;52411;52.716;6.696;2023-11-21T09:12:12;10.30;99.90
65692;DHT22;52411;52.716;6.696;2023-11-21T09:14:38;10.30;99.90
65692;DHT22;52411;52.716;6.696;2023-11-21T09:17:05;10.30;99.90
65692;DHT22;52411;52.716;6.696;2023-11-21T09:19:36;10.30;99.90
65692;DHT22;52411;52.716;6.696;2023-11-21T09:22:02;10.30;99.90
65692;DHT22;52411;52.716;6.696;2023-11-21T09:24:27;10.20;99.90
65692;DHT22;52411;52.716;6.696;2023-11-21T09:26:53;10.10;99.90
65692;DHT22;52411;52.716;6.696;2023-11-21T09:29:18;10.00;99.90
65692;DHT22;52411;52.716;6.696;2023-11-21T09:31:44;9.90;99.90
65692;DHT22;52411;52.716;6.696;2023-11-21T09:34:10;9.90;99.90
65692;DHT22;52411;52.716;6.696;2023-11-21T09:36:36;9.80;99.90
65692;DHT22;52411;52.716;6.696;2023-11-21T09:39:04;9.80;99.90
65692;DHT22;52411;52.716;6.696;2023-11-21T09:41:44;9.70;99.90
65692;DHT22;52411;52.716;6.696;2023-11-21T09:44:14;9.70;99.90
65692;DHT22;52411;52.716;6.696;2023-11-21T09:46:42;9.60;99.90
65692;DHT22;52411;52.716;6.696;2023-11-21T09:49:11;9.50;99.90
65692;DHT22;52411;52.716;6.696;2023-11-21T09:51:45;9.50;99.90
65692;DHT22;52411;52.716;6.696;2023-11-21T09:54:13;9.50;99.90
65692;DHT22;52411;52.716;6.696;2023-11-21T09:56:41;9.50;99.90
65692;DHT22;52411;52.716;6.696;2023-11-21T09:59:12;9.50;99.90
65692;DHT22;52411;52.716;6.696;2023-11-21T10:01:38;9.40;99.90
65692;DHT22;52411;52.716;6.696;2023-11-21T10:04:06;9.50;99.90
65692;DHT22;52411;52.716;6.696;2023-11-21T10:06:40;9.40;99.90
65692;DHT22;52411;52.716;6.696;2023-11-21T10:09:12;9.40;99.90
65692;DHT22;52411;52.716;6.696;2023-11-21T10:11:41;9.40;99.90
65692;DHT22;52411;52.716;6.696;2023-11-21T10:14:10;9.40;99.90
65692;DHT22;52411;52.716;6.696;2023-11-21T10:16:38;9.40;99.90
65692;DHT22;52411;52.716;6.696;2023-11-21T10:19:04;9.40;99.90
65692;DHT22;52411;52.716;6.696;2023-11-21T10:21:32;9.50;99.90
65692;DHT22;52411;52.716;6.696;2023-11-21T10:23:59;9.50;99.90
65692;DHT22;52411;52.716;6.696;2023-11-21T10:26:26;9.50;99.90
65692;DHT22;52411;52.716;6.696;2023-11-21T10:28:58;9.50;99.90
65692;DHT22;52411;52.716;6.696;2023-11-21T10:31:26;9.50;99.90
65692;DHT22;52411;52.716;6.696;2023-11-21T10:33:52;9.50;99.90
65692;DHT22;52411;52.716;6.696;2023-11-21T10:36:27;9.40;99.90
65692;DHT22;52411;52.716;6.696;2023-11-21T10:38:53;9.40;99.90
65692;DHT22;52411;52.716;6.696;2023-11-21T10:41:20;9.40;99.90
65692;DHT22;52411;52.716;6.696;2023-11-21T10:43:46;9.40;99.90
65692;DHT22;52411;52.716;6.696;2023-11-21T10:46:13;9.40;99.90
65692;DHT22;52411;52.716;6.696;2023-11-21T10:48:44;9.40;99.90
65692;DHT22;52411;52.716;6.696;2023-11-21T10:51:09;9.40;99.90
65692;DHT22;52411;52.716;6.696;2023-11-21T10:53:41;9.40;99.90
65692;DHT22;52411;52.716;6.696;2023-11-21T10:56:13;9.40;99.90
65692;DHT22;52411;52.716;6.696;2023-11-21T10:58:43;9.40;99.90
65692;DHT22;52411;52.716;6.696;2023-11-21T11:01:09;9.40;99.90
65692;DHT22;52411;52.716;6.696;2023-11-21T11:03:37;9.40;99.90
65692;DHT22;52411;52.716;6.696;2023-11-21T11:06:05;9.50;99.90
65692;DHT22;52411;52.716;6.696;2023-11-21T11:08:34;9.50;99.90
65692;DHT22;52411;52.716;6.696;2023-11-21T11:11:00;9.60;99.90
65692;DHT22;52411;52.716;6.696;2023-11-21T11:13:25;9.60;99.90
65692;DHT22;52411;52.716;6.696;2023-11-21T11:15:59;9.70;99.90
65692;DHT22;52411;52.716;6.696;2023-11-21T11:18:29;9.80;99.90
65692;DHT22;52411;52.716;6.696;2023-11-21T11:21:07;9.90;99.90
65692;DHT22;52411;52.716;6.696;2023-11-21T11:26:32;9.80;99.90
65692;DHT22;52411;52.716;6.696;2023-11-21T11:29:28;9.80;99.90
65692;DHT22;52411;52.716;6.696;2023-11-21T11:32:25;9.60;99.90
65692;DHT22;52411;52.716;6.696;2023-11-21T11:35:19;9.60;99.90
65692;DHT22;52411;52.716;6.696;2023-11-21T11:37:47;9.60;99.90
65692;DHT22;52411;52.716;6.696;2023-11-21T11:40:13;9.60;99.90
65692;DHT22;52411;52.716;6.696;2023-11-21T11:42:58;9.60;99.90
65692;DHT22;52411;52.716;6.696;2023-11-21T11:45:33;9.50;99.90
65692;DHT22;52411;52.716;6.696;2023-11-21T11:48:03;9.50;99.90
65692;DHT22;52411;52.716;6.696;2023-11-21T11:50:29;9.60;99.90
65692;DHT22;52411;52.716;6.696;2023-11-21T11:52:57;9.70;99.90
65692;DHT22;52411;52.716;6.696;2023-11-21T11:55:36;9.70;99.90
65692;DHT22;52411;52.716;6.696;2023-11-21T11:58:06;9.80;99.90
65692;DHT22;52411;52.716;6.696;2023-11-21T12:00:35;9.70;99.90
65692;DHT22;52411;52.716;6.696;2023-11-21T12:03:03;9.70;99.90
65692;DHT22;52411;52.716;6.696;2023-11-21T12:05:30;9.60;99.90
65692;DHT22;52411;52.716;6.696;2023-11-21T12:08:06;9.60;99.90
65692;DHT22;52411;52.716;6.696;2023-11-21T12:10:36;9.60;99.90
65692;DHT22;52411;52.716;6.696;2023-11-21T12:13:11;9.60;99.90
65692;DHT22;52411;52.716;6.696;2023-11-21T12:15:39;9.60;99.90
65692;DHT22;52411;52.716;6.696;2023-11-21T12:18:07;9.60;99.90
65692;DHT22;52411;52.716;6.696;2023-11-21T12:20:33;9.60;99.90
65692;DHT22;52411;52.716;6.696;2023-11-21T12:23:04;9.60;99.90
65692;DHT22;52411;52.716;6.696;2023-11-21T12:25:31;9.70;99.90
65692;DHT22;52411;52.716;6.696;2023-11-21T12:27:59;9.80;99.90
65692;DHT22;52411;52.716;6.696;2023-11-21T12:30:29;9.70;99.90
65692;DHT22;52411;52.716;6.696;2023-11-21T12:32:56;9.60;99.90
65692;DHT22;52411;52.716;6.696;2023-11-21T12:35:28;9.60;99.90
65692;DHT22;52411;52.716;6.696;2023-11-21T12:37:56;9.60;99.90
65692;DHT22;52411;52.716;6.696;2023-11-21T12:40:25;9.50;99.90
65692;DHT22;52411;52.716;6.696;2023-11-21T12:42:58;9.50;99.90
65692;DHT22;52411;52.716;6.696;2023-11-21T12:45:24;9.50;99.90
65692;DHT22;52411;52.716;6.696;2023-11-21T12:48:00;9.50;99.90
65692;DHT22;52411;52.716;6.696;2023-11-21T12:50:30;9.50;99.90
65692;DHT22;52411;52.716;6.696;2023-11-21T12:53:06;9.50;99.90
65692;DHT22;52411;52.716;6.696;2023-11-21T12:55:34;9.50;99.90
65692;DHT22;52411;52.716;6.696;2023-11-21T12:58:05;9.50;99.90
65692;DHT22;52411;52.716;6.696;2023-11-21T13:00:39;9.50;99.90
65692;DHT22;52411;52.716;6.696;2023-11-21T13:03:07;9.50;99.90
65692;DHT22;52411;52.716;6.696;2023-11-21T13:05:37;9.50;99.90
65692;DHT22;52411;52.716;6.696;2023-11-21T13:08:08;9.50;99.90
65692;DHT22;52411;52.716;6.696;2023-11-21T13:10:35;9.50;99.90
65692;DHT22;52411;52.716;6.696;2023-11-21T13:13:12;9.50;99.90
65692;DHT22;52411;52.716;6.696;2023-11-21T13:15:53;9.60;99.90
65692;DHT22;52411;52.716;6.696;2023-11-21T13:18:21;9.60;99.90
65692;DHT22;52411;52.716;6.696;2023-11-21T13:20:47;9.70;99.90
65692;DHT22;52411;52.716;6.696;2023-11-21T13:23:13;9.60;99.90
65692;DHT22;52411;52.716;6.696;2023-11-21T13:25:41;9.60;99.90
65692;DHT22;52411;52.716;6.696;2023-11-21T13:28:08;9.60;99.90
65692;DHT22;52411;52.716;6.696;2023-11-21T13:30:35;9.60;99.90
65692;DHT22;52411;52.716;6.696;2023-11-21T13:33:02;9.50;99.90
65692;DHT22;52411;52.716;6.696;2023-11-21T13:35:28;9.50;99.90
65692;DHT22;52411;52.716;6.696;2023-11-21T13:40:33;9.40;99.90
65692;DHT22;52411;52.716;6.696;2023-11-21T13:43:05;9.40;99.90
65692;DHT22;52411;52.716;6.696;2023-11-21T13:45:31;9.40;99.90
65692;DHT22;52411;52.716;6.696;2023-11-21T13:47:56;9.40;99.90
65692;DHT22;52411;52.716;6.696;2023-11-21T13:50:23;9.30;99.90
65692;DHT22;52411;52.716;6.696;2023-11-21T13:52:51;9.30;99.90
65692;DHT22;52411;52.716;6.696;2023-11-21T13:55:18;9.20;99.90
65692;DHT22;52411;52.716;6.696;2023-11-21T13:57:44;9.20;99.90
65692;DHT22;52411;52.716;6.696;2023-11-21T14:00:13;9.10;99.90
65692;DHT22;52411;52.716;6.696;2023-11-21T14:02:57;9.10;99.90
65692;DHT22;52411;52.716;6.696;2023-11-21T14:05:29;9.10;99.90
65692;DHT22;52411;52.716;6.696;2023-11-21T14:07:58;9.00;99.90
65692;DHT22;52411;52.716;6.696;2023-11-21T14:10:33;9.00;99.90
65692;DHT22;52411;52.716;6.696;2023-11-21T14:13:05;9.00;99.90
65692;DHT22;52411;52.716;6.696;2023-11-21T14:15:31;9.00;99.90
65692;DHT22;52411;52.716;6.696;2023-11-21T14:17:59;9.10;99.90
65692;DHT22;52411;52.716;6.696;2023-11-21T14:20:25;9.10;99.90
65692;DHT22;52411;52.716;6.696;2023-11-21T14:22:51;9.10;99.90
65692;DHT22;52411;52.716;6.696;2023-11-21T14:25:17;9.10;99.90
65692;DHT22;52411;52.716;6.696;2023-11-21T14:27:43;9.10;99.90
65692;DHT22;52411;52.716;6.696;2023-11-21T14:30:09;9.00;99.90
65692;DHT22;52411;52.716;6.696;2023-11-21T14:32:37;9.00;99.90
65692;DHT22;52411;52.716;6.696;2023-11-21T14:35:03;8.90;99.90
65692;DHT22;52411;52.716;6.696;2023-11-21T14:37:29;8.90;99.90
65692;DHT22;52411;52.716;6.696;2023-11-21T14:39:55;8.80;99.90
65692;DHT22;52411;52.716;6.696;2023-11-21T14:42:21;8.80;99.90
65692;DHT22;52411;52.716;6.696;2023-11-21T14:44:50;8.70;99.90
65692;DHT22;52411;52.716;6.696;2023-11-21T14:47:17;8.80;99.90
65692;DHT22;52411;52.716;6.696;2023-11-21T14:49:45;8.80;99.90
65692;DHT22;52411;52.716;6.696;2023-11-21T14:52:24;8.80;99.90
65692;DHT22;52411;52.716;6.696;2023-11-21T14:55:06;8.80;99.90
65692;DHT22;52411;52.716;6.696;2023-11-21T14:57:50;8.80;99.90
65692;DHT22;52411;52.716;6.696;2023-11-21T15:00:17;8.80;99.90
65692;DHT22;52411;52.716;6.696;2023-11-21T15:03:02;8.80;99.90
65692;DHT22;52411;52.716;6.696;2023-11-21T15:05:28;8.70;99.90
65692;DHT22;52411;52.716;6.696;2023-11-21T15:07:54;8.70;99.90
65692;DHT22;52411;52.716;6.696;2023-11-21T15:10:23;8.70;99.90
65692;DHT22;52411;52.716;6.696;2023-11-21T15:13:03;8.70;99.90
65692;DHT22;52411;52.716;6.696;2023-11-21T15:15:29;8.60;99.90
65692;DHT22;52411;52.716;6.696;2023-11-21T15:17:57;8.60;99.90
65692;DHT22;52411;52.716;6.696;2023-11-21T15:20:22;8.60;99.90
65692;DHT22;52411;52.716;6.696;2023-11-21T15:22:48;8.50;99.90
65692;DHT22;52411;52.716;6.696;2023-11-21T15:25:13;8.50;99.90
65692;DHT22;52411;52.716;6.696;2023-11-21T15:27:39;8.50;99.90
65692;DHT22;52411;52.716;6.696;2023-11-21T15:30:06;8.50;99.90
65692;DHT22;52411;52.716;6.696;2023-11-21T15:32:32;8.50;99.90
65692;DHT22;52411;52.716;6.696;2023-11-21T15:34:58;8.40;99.90
65692;DHT22;52411;52.716;6.696;2023-11-21T15:37:23;8.40;99.90
65692;DHT22;52411;52.716;6.696;2023-11-21T15:39:51;8.40;99.90
65692;DHT22;52411;52.716;6.696;2023-11-21T15:42:17;8.40;99.90
65692;DHT22;52411;52.716;6.696;2023-11-21T15:44:42;8.40;99.90
65692;DHT22;52411;52.716;6.696;2023-11-21T15:47:08;8.40;99.90
65692;DHT22;52411;52.716;6.696;2023-11-21T15:49:34;8.30;99.90
65692;DHT22;52411;52.716;6.696;2023-11-21T15:52:02;8.30;99.90
65692;DHT22;52411;52.716;6.696;2023-11-21T15:54:28;8.30;99.90